createdAt,value
2019-02-14T00:00:28.770Z,74.13
2019-02-14T00:02:58.877Z,74.34
2019-02-14T00:05:27.792Z,74.43
2019-02-14T00:07:56.709Z,74.25
2019-02-14T00:10:25.729Z,74.33
2019-02-14T00:12:55.463Z,74.50
2019-02-14T00:15:24.429Z,74.86
2019-02-14T00:17:53.365Z,73.56
2019-02-14T00:20:22.344Z,74.05
2019-02-14T00:22:51.489Z,74.16
2019-02-14T00:25:23.510Z,74.35
2019-02-14T00:27:52.515Z,73.89
2019-02-14T00:30:22.094Z,73.94
2019-02-14T00:32:51.241Z,73.90
2019-02-14T00:35:25.030Z,74.20
2019-02-14T00:37:49.720Z,74.59
2019-02-14T00:40:18.782Z,74.54
2019-02-14T00:42:47.963Z,74.61
2019-02-14T00:45:16.899Z,74.63
2019-02-14T00:47:47.711Z,74.68
2019-02-14T00:50:17.064Z,74.56
2019-02-14T00:52:46.374Z,74.74
2019-02-14T00:55:15.560Z,74.90
2019-02-14T00:57:44.944Z,74.99
2019-02-14T01:00:14.203Z,74.66
2019-02-14T01:02:43.566Z,74.83
2019-02-14T01:05:12.805Z,73.65
2019-02-14T01:07:41.718Z,74.40
2019-02-14T01:10:10.722Z,74.65
2019-02-14T01:12:39.645Z,74.60
2019-02-14T01:15:08.699Z,74.44
2019-02-14T01:17:37.634Z,74.58
2019-02-14T01:20:06.664Z,74.59
2019-02-14T01:22:35.884Z,74.44
2019-02-14T01:25:05.236Z,74.58
2019-02-14T01:27:34.164Z,74.52
2019-02-14T01:30:03.179Z,74.63
2019-02-14T01:32:32.971Z,73.38
2019-02-14T01:35:01.910Z,73.72
2019-02-14T01:37:32.070Z,72.92
2019-02-14T01:40:01.655Z,73.82
2019-02-14T01:42:30.637Z,72.65
2019-02-14T01:44:59.666Z,73.82
2019-02-14T01:47:28.706Z,74.25
2019-02-14T01:49:57.602Z,74.29
2019-02-14T01:52:26.591Z,74.88
2019-02-14T01:54:55.580Z,74.78
2019-02-14T01:57:24.538Z,75.00
2019-02-14T01:59:53.525Z,75.08
2019-02-14T02:02:22.781Z,76.24
2019-02-14T02:04:52.887Z,76.62
2019-02-14T02:07:21.934Z,76.76
2019-02-14T02:09:50.992Z,76.42
2019-02-14T02:12:19.958Z,76.78
2019-02-14T02:14:48.859Z,76.86
2019-02-14T02:17:17.743Z,77.27
2019-02-14T02:19:48.279Z,77.17
2019-02-14T02:22:18.430Z,77.04
2019-02-14T02:24:47.670Z,76.85
2019-02-14T02:27:16.688Z,77.47
2019-02-14T02:29:46.758Z,77.55
2019-02-14T02:32:15.711Z,77.75
2019-02-14T02:34:45.490Z,77.84
2019-02-14T02:37:15.608Z,78.00
2019-02-14T02:39:44.835Z,77.90
2019-02-14T02:42:13.832Z,78.29
2019-02-14T02:44:44.301Z,78.39
2019-02-14T02:47:14.786Z,78.45
2019-02-14T02:49:51.507Z,78.24
2019-02-14T02:52:21.150Z,78.63
2019-02-14T02:54:50.117Z,78.53
2019-02-14T02:57:19.350Z,78.75
2019-02-14T02:59:48.852Z,78.60
2019-02-14T03:02:17.751Z,78.73
2019-02-14T03:04:46.802Z,78.45
2019-02-14T03:07:15.769Z,78.60
2019-02-14T03:09:44.798Z,78.52
2019-02-14T03:12:13.695Z,78.42
2019-02-14T03:14:42.616Z,78.42
2019-02-14T03:17:11.529Z,76.81
2019-02-14T03:19:40.469Z,77.70
2019-02-14T03:22:09.421Z,77.75
2019-02-14T03:24:38.682Z,76.67
2019-02-14T03:27:07.676Z,77.86
2019-02-14T03:29:36.846Z,78.29
2019-02-14T03:32:06.345Z,78.04
2019-02-14T03:34:35.496Z,78.64
2019-02-14T03:37:07.629Z,78.68
2019-02-14T03:39:36.966Z,78.35
2019-02-14T03:42:07.977Z,78.26
2019-02-14T03:44:38.913Z,78.56
2019-02-14T03:47:07.966Z,78.76
2019-02-14T03:49:37.918Z,78.64
2019-02-14T03:52:06.862Z,78.81
2019-02-14T03:54:36.160Z,78.65
2019-02-14T03:57:06.159Z,78.39
2019-02-14T03:59:35.396Z,78.52
2019-02-14T04:02:05.426Z,78.59
2019-02-14T04:04:35.043Z,78.58
2019-02-14T04:07:04.137Z,78.32
2019-02-14T04:09:34.338Z,78.49
2019-02-14T04:12:04.313Z,78.26
2019-02-14T04:14:33.606Z,77.76
2019-02-14T04:17:09.085Z,77.74
2019-02-14T04:19:39.244Z,77.09
2019-02-14T04:22:08.239Z,77.83
2019-02-14T04:24:37.279Z,77.61
2019-02-14T04:27:06.573Z,77.98
2019-02-14T04:29:36.302Z,77.67
2019-02-14T04:32:05.329Z,77.55
2019-02-14T04:34:34.241Z,77.55
2019-02-14T04:37:03.676Z,77.74
2019-02-14T04:39:32.967Z,77.76
2019-02-14T04:42:02.303Z,77.96
2019-02-14T04:44:31.684Z,77.98
2019-02-14T04:47:00.951Z,78.04
2019-02-14T04:49:29.973Z,76.81
2019-02-14T04:52:00.805Z,77.79
2019-02-14T04:54:32.517Z,77.99
2019-02-14T04:57:02.074Z,78.39
2019-02-14T04:59:33.590Z,77.98
2019-02-14T05:02:06.064Z,78.03
2019-02-14T05:04:35.392Z,76.79
2019-02-14T05:07:04.955Z,77.48
2019-02-14T05:09:41.217Z,77.85
2019-02-14T05:12:11.093Z,77.92
2019-02-14T05:14:40.387Z,77.06
2019-02-14T05:17:09.367Z,77.54
2019-02-14T05:19:38.728Z,76.19
2019-02-14T05:22:07.661Z,77.21
2019-02-14T05:24:36.702Z,77.34
2019-02-14T05:27:05.736Z,77.49
2019-02-14T05:29:35.051Z,77.46
2019-02-14T05:32:04.036Z,77.48
2019-02-14T05:34:32.961Z,77.54
2019-02-14T05:37:02.573Z,77.81
2019-02-14T05:39:31.507Z,78.52
2019-02-14T05:42:00.566Z,78.45
2019-02-14T05:44:29.511Z,78.89
2019-02-14T05:46:58.841Z,79.37
2019-02-14T05:49:27.814Z,78.98
2019-02-14T05:51:56.785Z,78.89
2019-02-14T05:54:25.740Z,79.08
2019-02-14T05:56:55.808Z,79.15
2019-02-14T05:59:25.071Z,79.51
2019-02-14T06:01:54.043Z,79.29
2019-02-14T06:04:23.641Z,77.42
2019-02-14T06:07:00.768Z,78.65
2019-02-14T06:09:22.045Z,78.47
2019-02-14T06:11:51.139Z,78.76
2019-02-14T06:14:20.043Z,78.65
2019-02-14T06:16:49.131Z,78.86
2019-02-14T06:19:18.348Z,79.11
2019-02-14T06:21:47.439Z,79.17
2019-02-14T06:24:16.609Z,79.80
2019-02-14T06:26:45.899Z,79.94
2019-02-14T06:29:15.742Z,79.42
2019-02-14T06:31:44.708Z,79.22
2019-02-14T06:34:13.914Z,79.27
2019-02-14T06:36:43.086Z,79.63
2019-02-14T06:39:12.218Z,79.84
2019-02-14T06:41:41.148Z,79.91
2019-02-14T06:44:10.166Z,79.75
2019-02-14T06:46:40.277Z,79.54
2019-02-14T06:49:09.573Z,79.33
2019-02-14T06:51:38.758Z,79.00
2019-02-14T06:54:07.796Z,78.76
2019-02-14T06:56:36.966Z,78.98
2019-02-14T06:59:06.164Z,79.19
2019-02-14T07:01:35.364Z,78.94
2019-02-14T07:04:04.489Z,78.92
2019-02-14T07:06:33.798Z,78.64
2019-02-14T07:09:02.959Z,78.63
2019-02-14T07:11:32.191Z,78.52
2019-02-14T07:14:03.670Z,78.13
2019-02-14T07:16:30.755Z,77.87
2019-02-14T07:19:02.490Z,77.94
2019-02-14T07:21:31.697Z,77.74
2019-02-14T07:24:01.036Z,77.76
2019-02-14T07:26:30.197Z,77.51
2019-02-14T07:28:59.628Z,77.24
2019-02-14T07:31:28.842Z,76.82
2019-02-14T07:33:59.866Z,76.60
2019-02-14T07:36:27.312Z,75.99
2019-02-14T07:38:56.627Z,75.59
2019-02-14T07:41:25.640Z,75.20
2019-02-14T07:43:54.789Z,74.80
2019-02-14T07:46:23.903Z,74.68
2019-02-14T07:51:39.851Z,70.97
2019-02-14T07:54:09.188Z,69.94
2019-02-14T07:56:38.567Z,68.73
2019-02-14T07:59:10.821Z,68.26
2019-02-14T08:01:39.922Z,69.58
2019-02-14T08:04:09.141Z,69.72
2019-02-14T08:06:38.447Z,69.14
2019-02-14T08:09:07.829Z,68.22
2019-02-14T08:11:37.383Z,66.79
2019-02-14T08:14:06.776Z,64.72
2019-02-14T08:16:36.216Z,60.09
2019-02-14T08:19:05.607Z,56.77
2019-02-14T08:21:35.498Z,55.60
2019-02-14T08:24:04.854Z,56.98
2019-02-14T08:26:34.008Z,57.14
2019-02-14T08:29:03.360Z,56.57
2019-02-14T08:31:32.437Z,56.93
2019-02-14T08:34:01.640Z,56.83
2019-02-14T08:36:30.655Z,57.82
2019-02-14T08:38:59.823Z,57.36
2019-02-14T08:41:28.916Z,53.68
2019-02-14T08:44:13.554Z,48.05
2019-02-14T08:46:41.258Z,47.47
2019-02-14T08:49:10.547Z,44.71
2019-02-14T08:51:39.825Z,45.19
2019-02-14T08:54:09.756Z,43.07
2019-02-14T08:56:39.003Z,45.39
2019-02-14T08:59:08.449Z,44.87
2019-02-14T09:01:37.802Z,44.58
2019-02-14T09:04:08.912Z,42.68
2019-02-14T09:06:44.043Z,38.71
2019-02-14T09:09:11.745Z,40.21
2019-02-14T09:11:44.042Z,37.72
2019-02-14T09:14:13.224Z,37.75
2019-02-14T09:17:02.503Z,39.74
2019-02-14T09:19:28.185Z,42.07
2019-02-14T09:21:59.888Z,42.14
2019-02-14T09:24:29.148Z,41.93
2019-02-14T09:26:58.425Z,42.00
2019-02-14T09:29:27.730Z,40.89
2019-02-14T09:31:57.047Z,39.94
2019-02-14T09:34:26.216Z,40.26
2019-02-14T09:36:55.438Z,40.26
2019-02-14T09:39:24.638Z,39.09
2019-02-14T09:41:53.737Z,38.55
2019-02-14T09:44:22.918Z,37.21
2019-02-14T09:46:52.109Z,38.10
2019-02-14T09:49:21.336Z,39.97
2019-02-14T09:51:50.563Z,38.45
2019-02-14T09:54:19.867Z,37.01
2019-02-14T09:56:49.138Z,35.75
2019-02-14T09:59:18.311Z,34.21
2019-02-14T10:01:47.420Z,31.39
2019-02-14T10:04:16.595Z,30.31
2019-02-14T10:06:47.995Z,31.37
2019-02-14T10:09:14.636Z,32.29
2019-02-14T10:11:43.744Z,32.16
2019-02-14T10:14:12.789Z,32.38
2019-02-14T10:16:41.859Z,34.00
2019-02-14T10:19:11.040Z,34.83
2019-02-14T10:21:40.486Z,33.25
2019-02-14T10:24:10.215Z,34.63
2019-02-14T10:26:39.484Z,35.86
2019-02-14T10:29:08.710Z,36.36
2019-02-14T10:31:37.915Z,34.71
2019-02-14T10:34:09.584Z,33.33
2019-02-14T10:36:38.810Z,32.84
2019-02-14T10:39:08.050Z,32.41
2019-02-14T10:41:37.261Z,34.48
2019-02-14T10:44:19.223Z,34.92
2019-02-14T10:46:51.224Z,36.60
2019-02-14T10:49:20.403Z,36.86
2019-02-14T10:51:55.574Z,35.29
2019-02-14T10:54:24.558Z,34.33
2019-02-14T10:56:59.310Z,33.95
2019-02-14T10:59:28.531Z,32.23
2019-02-14T11:01:57.713Z,31.78
2019-02-14T11:04:28.984Z,30.60
2019-02-14T11:06:58.136Z,30.86
2019-02-14T11:09:27.221Z,31.57
2019-02-14T11:11:56.305Z,31.38
2019-02-14T11:14:29.256Z,28.55
2019-02-14T11:16:55.917Z,28.92
2019-02-14T11:19:24.931Z,31.15
2019-02-14T11:21:54.328Z,27.56
2019-02-14T11:24:24.338Z,31.72
2019-02-14T11:26:55.531Z,32.69
2019-02-14T11:29:25.905Z,33.15
2019-02-14T11:31:55.039Z,34.24
2019-02-14T11:34:25.820Z,31.83
2019-02-14T11:36:55.066Z,32.41
2019-02-14T11:39:24.108Z,31.90
2019-02-14T11:41:53.338Z,31.47
2019-02-14T11:44:22.846Z,31.56
2019-02-14T11:46:52.164Z,30.21
2019-02-14T11:49:21.864Z,29.70
2019-02-14T11:51:54.744Z,29.89
2019-02-14T11:54:32.347Z,29.96
2019-02-14T11:57:01.466Z,31.74
2019-02-14T11:59:30.439Z,32.47
2019-02-14T12:01:59.429Z,33.77
2019-02-14T12:04:28.498Z,34.14
2019-02-14T12:06:57.682Z,34.79
2019-02-14T12:09:27.094Z,33.62
2019-02-14T12:11:56.214Z,35.17
2019-02-14T12:14:25.304Z,35.51
2019-02-14T12:16:54.232Z,35.92
2019-02-14T12:19:23.316Z,35.84
2019-02-14T12:21:52.414Z,35.79
2019-02-14T12:24:21.488Z,35.49
2019-02-14T12:26:50.694Z,36.58
2019-02-14T12:29:20.113Z,36.81
2019-02-14T12:31:50.022Z,36.80
2019-02-14T12:34:19.323Z,37.71
2019-02-14T12:36:48.419Z,38.00
2019-02-14T12:39:17.547Z,36.79
2019-02-14T12:41:46.625Z,37.45
2019-02-14T12:44:15.667Z,37.84
2019-02-14T12:46:47.704Z,37.40
2019-02-14T12:49:16.754Z,36.97
2019-02-14T12:51:45.746Z,36.50
2019-02-14T12:54:38.702Z,37.25
2019-02-14T12:57:03.834Z,36.75
2019-02-14T12:59:32.952Z,36.98
2019-02-14T13:02:06.881Z,36.62
2019-02-14T13:04:33.839Z,36.99
2019-02-14T13:07:02.905Z,36.08
2019-02-14T13:09:32.000Z,35.46
2019-02-14T13:12:01.076Z,36.67
2019-02-14T13:14:30.141Z,36.76
2019-02-14T13:16:59.230Z,36.24
2019-02-14T13:19:28.377Z,35.99
2019-02-14T13:21:57.426Z,35.44
2019-02-14T13:24:26.851Z,35.83
2019-02-14T13:26:55.905Z,35.83
2019-02-14T13:29:24.981Z,36.17
2019-02-14T13:31:54.008Z,35.25
2019-02-14T13:34:23.064Z,34.57
2019-02-14T13:37:01.028Z,35.85
2019-02-14T13:39:29.383Z,35.24
2019-02-14T13:41:50.181Z,35.65
2019-02-14T13:44:19.184Z,36.22
2019-02-14T13:46:48.195Z,35.93
2019-02-14T13:49:17.167Z,35.72
2019-02-14T13:51:46.204Z,36.56
2019-02-14T13:54:15.261Z,36.91
2019-02-14T13:56:44.273Z,35.92
2019-02-14T13:59:13.306Z,36.16
2019-02-14T14:01:42.349Z,35.29
2019-02-14T14:04:11.769Z,35.74
2019-02-14T14:06:40.771Z,35.04
2019-02-14T14:09:10.158Z,35.57
2019-02-14T14:11:39.250Z,36.24
2019-02-14T14:14:08.249Z,35.37
2019-02-14T14:16:37.328Z,35.81
2019-02-14T14:19:06.739Z,35.84
2019-02-14T14:21:35.429Z,36.21
2019-02-14T14:24:04.499Z,36.83
2019-02-14T14:26:33.514Z,37.50
2019-02-14T14:29:02.541Z,36.71
2019-02-14T14:31:31.557Z,36.94
2019-02-14T14:34:00.590Z,36.71
2019-02-14T14:36:29.648Z,35.35
2019-02-14T14:38:58.764Z,36.54
2019-02-14T14:41:27.817Z,37.06
2019-02-14T14:44:06.607Z,36.98
2019-02-14T14:46:52.294Z,36.47
2019-02-14T14:49:21.378Z,36.37
2019-02-14T14:51:50.540Z,36.51
2019-02-14T14:54:19.597Z,36.62
2019-02-14T14:56:48.691Z,36.21
2019-02-14T14:59:20.595Z,36.39
2019-02-14T15:01:49.699Z,36.47
2019-02-14T15:04:18.738Z,36.33
2019-02-14T15:06:47.869Z,36.70
2019-02-14T15:09:16.926Z,36.79
2019-02-14T15:11:49.091Z,36.68
2019-02-14T15:14:18.173Z,36.37
2019-02-14T15:16:47.268Z,36.04
2019-02-14T15:19:16.469Z,35.99
2019-02-14T15:21:45.505Z,35.64
2019-02-14T15:24:14.608Z,36.24
2019-02-14T15:26:43.685Z,37.26
2019-02-14T15:29:12.729Z,37.46
2019-02-14T15:31:41.825Z,37.63
2019-02-14T15:34:10.925Z,39.23
2019-02-14T15:36:40.169Z,40.53
2019-02-14T15:39:09.221Z,41.64
2019-02-14T15:41:38.432Z,42.01
2019-02-14T15:44:07.397Z,42.64
2019-02-14T15:46:36.558Z,43.30
2019-02-14T15:49:05.592Z,43.71
2019-02-14T15:51:34.963Z,43.90
2019-02-14T15:54:04.104Z,45.18
2019-02-14T15:56:33.520Z,44.34
2019-02-14T15:59:05.274Z,45.28
2019-02-14T16:01:34.560Z,45.58
2019-02-14T16:04:04.923Z,45.42
2019-02-14T16:06:32.896Z,45.41
2019-02-14T16:09:02.789Z,45.05
2019-02-14T16:11:33.839Z,45.10
2019-02-14T16:14:01.141Z,45.99
2019-02-14T16:16:30.272Z,47.17
2019-02-14T16:18:59.391Z,48.10
2019-02-14T16:21:29.519Z,48.26
2019-02-14T16:23:57.762Z,48.11
2019-02-14T16:26:26.934Z,46.93
2019-02-14T16:28:56.226Z,47.49
2019-02-14T16:31:25.363Z,46.87
2019-02-14T16:33:54.557Z,47.57
2019-02-14T16:36:23.736Z,47.88
2019-02-14T16:38:52.945Z,48.05
2019-02-14T16:41:22.072Z,48.24
2019-02-14T16:43:51.664Z,49.23
2019-02-14T16:46:20.869Z,49.95
2019-02-14T16:48:51.510Z,50.21
2019-02-14T16:51:20.770Z,49.82
2019-02-14T16:53:50.516Z,49.64
2019-02-14T16:56:19.702Z,49.93
2019-02-14T16:58:49.751Z,49.73
2019-02-14T17:01:19.665Z,50.35
2019-02-14T17:03:48.837Z,50.83
2019-02-14T17:06:17.931Z,51.38
2019-02-14T17:08:46.981Z,51.71
2019-02-14T17:11:18.186Z,52.70
2019-02-14T17:13:47.371Z,52.67
2019-02-14T17:16:16.511Z,53.87
2019-02-14T17:18:45.615Z,53.75
2019-02-14T17:21:14.811Z,54.16
2019-02-14T17:23:43.968Z,54.92
2019-02-14T17:26:13.029Z,55.54
2019-02-14T17:28:42.205Z,54.84
2019-02-14T17:31:11.683Z,55.19
2019-02-14T17:33:41.199Z,55.46
2019-02-14T17:36:10.463Z,56.12
2019-02-14T17:38:39.534Z,56.82
2019-02-14T17:41:11.878Z,57.21
2019-02-14T17:43:40.885Z,57.34
2019-02-14T17:46:10.017Z,57.07
2019-02-14T17:48:39.151Z,57.67
2019-02-14T17:51:08.254Z,58.45
2019-02-14T17:53:37.442Z,58.29
2019-02-14T17:56:06.474Z,58.69
2019-02-14T17:58:35.581Z,59.47
2019-02-14T18:01:07.627Z,59.73
2019-02-14T18:03:37.121Z,59.58
2019-02-14T18:06:15.053Z,58.93
2019-02-14T18:08:44.239Z,58.40
2019-02-14T18:11:13.385Z,59.17
2019-02-14T18:13:42.587Z,58.93
2019-02-14T18:16:11.576Z,59.31
2019-02-14T18:18:40.726Z,59.71
2019-02-14T18:21:09.752Z,60.39
2019-02-14T18:23:38.863Z,60.51
2019-02-14T18:26:07.959Z,61.44
2019-02-14T18:28:37.095Z,61.99
2019-02-14T18:31:06.142Z,62.15
2019-02-14T18:33:35.296Z,62.36
2019-02-14T18:36:04.286Z,62.51
2019-02-14T18:38:33.385Z,62.72
2019-02-14T18:41:04.393Z,63.06
2019-02-14T18:43:31.504Z,63.18
2019-02-14T18:46:00.615Z,63.11
2019-02-14T18:48:29.679Z,63.33
2019-02-14T18:50:58.853Z,63.01
2019-02-14T18:53:28.940Z,63.27
2019-02-14T18:55:58.018Z,63.45
2019-02-14T18:58:27.165Z,63.60
2019-02-14T19:00:56.252Z,63.49
2019-02-14T19:03:25.414Z,63.28
2019-02-14T19:05:54.413Z,63.35
2019-02-14T19:08:23.470Z,62.29
2019-02-14T19:10:52.630Z,62.09
2019-02-14T19:13:21.726Z,61.84
2019-02-14T19:15:50.834Z,60.90
2019-02-14T19:18:20.015Z,61.68
2019-02-14T19:20:49.140Z,60.82
2019-02-14T19:23:23.892Z,60.52
2019-02-14T19:25:47.341Z,61.15
2019-02-14T19:28:16.407Z,61.60
2019-02-14T19:30:45.504Z,62.33
2019-02-14T19:33:14.593Z,62.63
2019-02-14T19:35:43.658Z,62.89
2019-02-14T19:38:12.743Z,63.00
2019-02-14T19:40:41.836Z,63.30
2019-02-14T19:43:10.895Z,63.73
2019-02-14T19:45:40.042Z,63.89
2019-02-14T19:48:09.098Z,64.13
2019-02-14T19:50:38.217Z,64.20
2019-02-14T19:53:07.321Z,64.21
2019-02-14T19:55:36.436Z,64.21
2019-02-14T19:58:05.552Z,63.23
2019-02-14T20:00:34.630Z,62.57
2019-02-14T20:03:03.748Z,61.80
2019-02-14T20:05:32.736Z,61.90
2019-02-14T20:08:01.881Z,62.31
2019-02-14T20:10:30.936Z,62.30
2019-02-14T20:13:00.057Z,62.47
2019-02-14T20:15:36.889Z,62.13
2019-02-14T20:17:58.243Z,62.21
2019-02-14T20:20:27.301Z,62.77
2019-02-14T20:22:56.439Z,63.09
2019-02-14T20:25:25.407Z,63.41
2019-02-14T20:27:54.515Z,63.89
2019-02-14T20:30:23.626Z,64.05
2019-02-14T20:32:52.744Z,63.47
2019-02-14T20:35:21.779Z,63.62
2019-02-14T20:37:50.969Z,63.91
2019-02-14T20:40:19.965Z,64.16
2019-02-14T20:42:49.077Z,64.33
2019-02-14T20:45:18.164Z,64.26
2019-02-14T20:47:47.274Z,64.15
2019-02-14T20:50:16.480Z,62.92
2019-02-14T20:52:45.564Z,62.80
2019-02-14T20:55:15.560Z,62.21
2019-02-14T20:57:44.765Z,62.72
2019-02-14T21:00:20.185Z,63.35
2019-02-14T21:02:49.204Z,63.37
2019-02-14T21:05:18.409Z,62.80
2019-02-14T21:07:47.475Z,62.67
2019-02-14T21:10:16.604Z,62.01
2019-02-14T21:12:45.650Z,62.63
2019-02-14T21:15:14.770Z,63.21
2019-02-14T21:17:43.823Z,62.92
2019-02-14T21:20:12.959Z,63.09
2019-02-14T21:23:17.416Z,63.43
2019-02-14T21:25:46.691Z,63.50
2019-02-14T21:28:16.165Z,63.66
2019-02-14T21:30:45.269Z,64.08
2019-02-14T21:33:14.425Z,64.13
2019-02-14T21:35:43.526Z,63.54
2019-02-14T21:38:12.736Z,63.06
2019-02-14T21:40:41.737Z,62.75
2019-02-14T21:43:10.839Z,63.34
2019-02-14T21:45:39.953Z,63.04
2019-02-14T21:48:24.510Z,63.09
2019-02-14T21:50:53.695Z,62.12
2019-02-14T21:53:22.710Z,61.46
2019-02-14T21:55:51.843Z,61.54
2019-02-14T21:58:21.217Z,61.92
2019-02-14T22:00:50.289Z,61.28
2019-02-14T22:03:19.423Z,60.65
2019-02-14T22:06:30.434Z,60.87
2019-02-14T22:08:59.566Z,60.12
2019-02-14T22:11:34.017Z,59.66
2019-02-14T22:13:57.821Z,58.96
2019-02-14T22:16:27.066Z,56.61
2019-02-14T22:18:56.186Z,57.44
2019-02-14T22:21:25.201Z,56.65
2019-02-14T22:24:09.326Z,55.76
2019-02-14T22:26:54.298Z,55.84
2019-02-14T22:29:24.617Z,53.63
2019-02-14T22:31:52.638Z,53.83
2019-02-14T22:34:21.743Z,54.16
2019-02-14T22:36:50.903Z,53.26
2019-02-14T22:40:02.116Z,52.48
2019-02-14T22:42:31.209Z,51.99
2019-02-14T22:45:00.399Z,51.25
2019-02-14T22:47:29.451Z,50.80
2019-02-14T22:49:58.562Z,50.46
2019-02-14T22:52:27.772Z,50.40
2019-02-14T22:54:56.883Z,50.16
2019-02-14T22:57:26.080Z,50.12
2019-02-14T22:59:55.198Z,50.22
2019-02-14T23:02:24.332Z,50.03
2019-02-14T23:04:53.479Z,50.45
2019-02-14T23:07:22.547Z,50.57
2019-02-14T23:09:51.673Z,50.66
2019-02-14T23:12:20.779Z,50.27
2019-02-14T23:14:49.861Z,50.52
2019-02-14T23:17:18.931Z,50.67
2019-02-14T23:19:48.093Z,50.40
2019-02-14T23:22:17.089Z,50.11
2019-02-14T23:25:11.144Z,49.54
2019-02-14T23:27:40.274Z,48.99
2019-02-14T23:30:09.582Z,48.75
2019-02-14T23:32:39.329Z,48.81
2019-02-14T23:35:08.496Z,48.02
2019-02-14T23:37:37.611Z,48.20
2019-02-14T23:40:06.826Z,48.14
2019-02-14T23:42:35.935Z,48.24
2019-02-14T23:45:05.262Z,47.95
2019-02-14T23:47:34.299Z,48.03
2019-02-14T23:50:03.528Z,47.67
2019-02-14T23:52:32.679Z,47.65
2019-02-14T23:55:01.834Z,47.68
2019-02-14T23:57:31.033Z,47.91
